createdAt,value
2019-05-15T04:50:34.208Z,16
2019-05-15T04:51:46.041Z,16
2019-05-15T04:52:58.283Z,16
2019-05-15T04:54:10.545Z,16
2019-05-15T04:55:22.818Z,16
2019-05-15T04:58:59.564Z,16
2019-05-15T05:00:11.952Z,16
2019-05-15T05:01:24.079Z,16
2019-05-15T05:02:36.466Z,16
2019-05-15T05:03:48.679Z,22
2019-05-15T05:05:01.113Z,22
2019-05-15T05:06:13.066Z,22
2019-05-15T05:07:25.494Z,22
2019-05-15T05:08:38.011Z,22
2019-05-15T05:09:52.394Z,22
2019-05-15T05:11:02.242Z,22
2019-05-15T05:12:14.473Z,22
2019-05-15T05:15:51.076Z,22
2019-05-15T05:17:03.341Z,22
2019-05-15T05:18:15.949Z,22
2019-05-15T05:20:40.089Z,22
2019-05-15T05:21:52.433Z,22
2019-05-15T05:23:04.957Z,22
2019-05-15T05:24:16.964Z,22
2019-05-15T05:25:29.223Z,22
2019-05-15T05:26:41.418Z,22
2019-05-15T05:27:53.627Z,22
2019-05-15T05:29:05.857Z,22
2019-05-15T05:30:18.117Z,22
2019-05-15T05:31:30.535Z,28
2019-05-15T05:33:54.946Z,28
2019-05-15T05:35:07.295Z,28
2019-05-15T05:36:19.422Z,28
2019-05-15T05:37:31.640Z,28
2019-05-15T05:38:43.855Z,28
2019-05-15T05:39:57.436Z,28
2019-05-15T05:42:20.613Z,28
2019-05-15T05:43:32.953Z,28
2019-05-15T05:44:46.850Z,28
2019-05-15T05:47:09.738Z,28
2019-05-15T05:48:22.184Z,28
2019-05-15T05:53:10.885Z,28
2019-05-15T05:54:23.307Z,28
2019-05-15T05:55:35.451Z,28
2019-05-15T05:57:59.984Z,28
2019-05-15T05:59:12.238Z,28
2019-05-15T06:00:24.536Z,28
2019-05-15T06:01:36.813Z,28
2019-05-15T06:02:49.018Z,33
2019-05-15T06:04:01.166Z,33
2019-05-15T06:05:13.604Z,33
2019-05-15T06:10:03.628Z,33
2019-05-15T06:11:14.664Z,33
2019-05-15T06:12:27.297Z,33
2019-05-15T06:13:39.296Z,33
2019-05-15T06:14:51.498Z,33
2019-05-15T06:16:03.871Z,33
2019-05-15T06:17:15.962Z,33
2019-05-15T06:18:28.163Z,33
2019-05-15T06:19:40.673Z,33
2019-05-15T06:20:52.753Z,33
2019-05-15T06:22:04.917Z,33
2019-05-15T06:23:17.477Z,33
2019-05-15T06:24:29.555Z,33
2019-05-15T06:25:41.684Z,33
2019-05-15T06:28:06.301Z,39
2019-05-15T06:29:18.647Z,39
2019-05-15T06:31:43.047Z,39
2019-05-15T06:32:55.337Z,39
2019-05-15T06:34:07.640Z,39
2019-05-15T06:35:19.938Z,39
2019-05-15T06:36:32.043Z,39
2019-05-15T06:37:44.290Z,39
2019-05-15T06:38:56.493Z,39
2019-05-15T06:41:21.114Z,39
2019-05-15T06:42:33.242Z,39
2019-05-15T06:43:45.595Z,45
2019-05-15T06:46:10.095Z,45
2019-05-15T06:47:22.315Z,45
2019-05-15T06:48:34.690Z,45
2019-05-15T06:49:46.759Z,45
2019-05-15T06:50:59.008Z,45
2019-05-15T06:52:11.368Z,45
2019-05-15T06:53:23.648Z,45
2019-05-15T06:54:35.737Z,45
2019-05-15T06:57:00.370Z,45
2019-05-15T06:58:12.537Z,45
2019-05-15T06:59:24.749Z,45
2019-05-15T07:00:37.007Z,45
2019-05-15T07:04:13.818Z,45
2019-05-15T07:05:26.190Z,45
2019-05-15T07:06:38.461Z,45
2019-05-15T07:09:02.836Z,45
2019-05-15T07:10:17.234Z,45
2019-05-15T07:11:27.277Z,45
2019-05-15T07:12:39.693Z,45
2019-05-15T07:13:51.792Z,45
2019-05-15T07:15:04.035Z,45
2019-05-15T07:16:16.278Z,45
2019-05-15T07:17:28.727Z,45
2019-05-15T07:18:45.947Z,50
2019-05-15T07:19:53.699Z,50
2019-05-15T07:22:17.669Z,50
2019-05-15T07:23:29.822Z,50
2019-05-15T07:24:42.306Z,50
2019-05-15T07:25:54.310Z,50
2019-05-15T07:27:06.685Z,50
2019-05-15T07:28:19.029Z,50
2019-05-15T07:29:31.124Z,50
2019-05-15T07:30:43.709Z,50
2019-05-15T07:36:44.608Z,61
2019-05-15T07:37:56.828Z,61
2019-05-15T07:40:25.452Z,61
2019-05-15T07:41:37.053Z,67
2019-05-15T07:42:45.932Z,67
2019-05-15T07:43:58.127Z,67
2019-05-15T07:45:10.398Z,67
2019-05-15T07:46:22.647Z,67
2019-05-15T07:47:34.893Z,67
2019-05-15T07:48:48.239Z,67
2019-05-15T07:51:11.591Z,455
2019-05-15T07:52:24.664Z,1035
2019-05-15T07:53:36.316Z,1096
2019-05-15T07:54:48.387Z,894
2019-05-15T07:56:00.622Z,748
2019-05-15T07:58:25.095Z,1153
2019-05-15T07:59:37.407Z,1321
2019-05-15T08:00:49.957Z,1243
2019-05-15T08:03:14.378Z,1203
2019-05-15T08:04:27.045Z,1305
2019-05-15T08:05:38.648Z,1310
2019-05-15T08:06:50.866Z,1209
2019-05-15T08:08:03.132Z,1147
2019-05-15T08:09:15.603Z,1006
2019-05-15T08:10:32.369Z,984
2019-05-15T08:11:39.984Z,995
2019-05-15T08:12:52.157Z,1057
2019-05-15T08:14:04.414Z,1248
2019-05-15T08:16:29.050Z,1434
2019-05-15T08:18:53.518Z,1327
2019-05-15T08:20:05.648Z,1305
2019-05-15T08:21:18.168Z,1271
2019-05-15T08:22:30.222Z,1271
2019-05-15T08:23:42.422Z,1350
2019-05-15T08:24:54.687Z,1552
2019-05-15T08:26:07.650Z,1586
2019-05-15T08:27:19.421Z,1535
2019-05-15T08:28:31.425Z,1406
2019-05-15T08:29:43.659Z,1395
2019-05-15T08:30:56.192Z,1530
2019-05-15T08:32:08.389Z,1591
2019-05-15T08:35:45.041Z,1738
2019-05-15T08:36:57.277Z,1659
2019-05-15T08:38:09.428Z,1558
2019-05-15T08:39:21.775Z,1485
2019-05-15T08:40:37.055Z,1558
2019-05-15T08:41:46.178Z,1597
2019-05-15T08:42:58.555Z,1395
2019-05-15T08:45:23.273Z,990
2019-05-15T08:46:35.301Z,708
2019-05-15T08:47:47.706Z,523
2019-05-15T08:48:59.799Z,331
2019-05-15T08:50:12.077Z,292
2019-05-15T08:52:36.546Z,253
2019-05-15T08:53:51.860Z,241
2019-05-15T08:57:25.472Z,208
2019-05-15T08:58:37.938Z,202
2019-05-15T08:59:49.990Z,196
2019-05-15T09:01:02.375Z,196
2019-05-15T09:02:18.954Z,196
2019-05-15T09:03:26.763Z,191
2019-05-15T09:04:39.000Z,191
2019-05-15T09:05:51.250Z,191
2019-05-15T09:07:03.554Z,185
2019-05-15T09:08:15.742Z,247
2019-05-15T09:10:54.181Z,230
2019-05-15T09:11:55.377Z,219
2019-05-15T09:13:04.887Z,213
2019-05-15T09:14:17.013Z,202
2019-05-15T09:15:29.303Z,202
2019-05-15T09:16:41.519Z,202
2019-05-15T09:19:06.054Z,196
2019-05-15T09:20:18.376Z,191
2019-05-15T09:21:30.542Z,185
2019-05-15T09:23:55.305Z,180
2019-05-15T09:25:07.356Z,174
2019-05-15T09:26:19.642Z,168
2019-05-15T09:28:44.051Z,174
2019-05-15T09:29:56.361Z,163
2019-05-15T09:31:08.569Z,163
2019-05-15T09:32:20.802Z,163
2019-05-15T09:33:33.126Z,163
2019-05-15T09:34:45.463Z,157
2019-05-15T09:35:57.574Z,157
2019-05-15T09:37:09.874Z,157
2019-05-15T09:39:34.358Z,157
2019-05-15T09:40:55.952Z,157
2019-05-15T09:41:59.354Z,151
2019-05-15T09:43:11.257Z,151
2019-05-15T09:44:23.413Z,151
2019-05-15T09:46:47.880Z,151
2019-05-15T09:48:00.108Z,151
2019-05-15T09:49:12.383Z,151
2019-05-15T09:50:24.606Z,151
2019-05-15T09:51:37.053Z,151
2019-05-15T09:52:49.324Z,151
2019-05-15T09:54:01.831Z,146
2019-05-15T09:55:13.842Z,146
2019-05-15T09:56:25.950Z,146
2019-05-15T09:57:39.058Z,146
2019-05-15T09:58:50.440Z,146
2019-05-15T10:00:02.808Z,146
2019-05-15T10:02:27.223Z,140
2019-05-15T10:04:51.782Z,140
2019-05-15T10:06:04.132Z,146
2019-05-15T10:07:16.315Z,146
2019-05-15T10:08:28.522Z,146
2019-05-15T10:09:41.371Z,146
2019-05-15T10:10:56.700Z,146
2019-05-15T10:12:08.257Z,146
2019-05-15T10:13:17.557Z,146
2019-05-15T10:14:29.915Z,146
2019-05-15T10:15:42.015Z,146
2019-05-15T10:16:54.170Z,146
2019-05-15T10:18:06.510Z,146
2019-05-15T10:19:19.053Z,146
2019-05-15T10:20:30.962Z,140
2019-05-15T10:22:55.580Z,146
2019-05-15T10:24:08.062Z,146
2019-05-15T10:25:20.132Z,140
2019-05-15T10:26:32.285Z,140
2019-05-15T10:27:44.537Z,140
2019-05-15T10:28:56.921Z,140
2019-05-15T10:30:08.932Z,140
2019-05-15T10:31:21.242Z,140
2019-05-15T10:33:45.804Z,140
2019-05-15T10:34:57.955Z,140
2019-05-15T10:37:22.636Z,140
2019-05-15T10:38:34.787Z,140
2019-05-15T10:42:11.662Z,135
2019-05-15T10:43:23.855Z,140
2019-05-15T10:44:35.981Z,135
2019-05-15T10:45:48.333Z,135
2019-05-15T10:47:00.973Z,135
2019-05-15T10:48:12.775Z,135
2019-05-15T10:49:24.989Z,135
2019-05-15T10:51:49.665Z,140
2019-05-15T10:53:02.001Z,140
2019-05-15T10:54:14.145Z,146
2019-05-15T10:55:26.318Z,151
2019-05-15T10:56:38.566Z,146
2019-05-15T10:59:04.026Z,163
2019-05-15T11:00:15.269Z,196
2019-05-15T11:01:27.502Z,185
2019-05-15T11:02:39.806Z,191
2019-05-15T11:05:04.283Z,174
2019-05-15T11:06:16.554Z,174
2019-05-15T11:07:28.959Z,225
2019-05-15T11:08:41.483Z,230
2019-05-15T11:09:54.685Z,191
2019-05-15T11:11:05.722Z,225
2019-05-15T11:12:17.943Z,253
2019-05-15T11:13:30.139Z,208
2019-05-15T11:14:42.304Z,163
2019-05-15T11:17:07.203Z,140
2019-05-15T11:18:19.121Z,157
2019-05-15T11:19:31.664Z,140
2019-05-15T11:20:43.789Z,157
2019-05-15T11:21:56.004Z,174
2019-05-15T11:23:08.275Z,180
2019-05-15T11:24:20.321Z,163
2019-05-15T11:25:32.756Z,157
2019-05-15T11:26:44.972Z,140
2019-05-15T11:27:57.216Z,146
2019-05-15T11:29:09.368Z,140
2019-05-15T11:30:21.654Z,157
2019-05-15T11:31:34.090Z,135
2019-05-15T11:32:46.199Z,140
2019-05-15T11:35:11.326Z,129
2019-05-15T11:36:23.149Z,135
2019-05-15T11:37:35.145Z,129
2019-05-15T11:40:01.802Z,135
2019-05-15T11:41:16.300Z,135
2019-05-15T11:42:24.121Z,146
2019-05-15T11:43:36.369Z,151
2019-05-15T11:44:48.703Z,151
2019-05-15T11:46:00.898Z,157
2019-05-15T11:47:13.330Z,157
2019-05-15T11:48:25.382Z,151
2019-05-15T11:50:49.886Z,168
2019-05-15T11:53:14.456Z,157
2019-05-15T11:54:26.771Z,146
2019-05-15T11:55:38.963Z,135
2019-05-15T11:56:51.144Z,135
2019-05-15T11:58:03.465Z,140
2019-05-15T11:59:15.772Z,140
2019-05-15T12:00:27.939Z,151
2019-05-15T12:01:40.183Z,174
2019-05-15T12:02:52.648Z,264
2019-05-15T12:04:04.790Z,303
2019-05-15T12:06:30.554Z,303
2019-05-15T12:07:41.424Z,247
2019-05-15T12:08:53.694Z,225
2019-05-15T12:11:18.276Z,174
2019-05-15T12:12:30.634Z,208
2019-05-15T12:13:42.688Z,219
2019-05-15T12:14:55.052Z,213
2019-05-15T12:17:19.498Z,247
2019-05-15T12:18:31.715Z,236
2019-05-15T12:19:44.221Z,286
2019-05-15T12:23:23.631Z,230
2019-05-15T12:24:33.076Z,202
2019-05-15T12:25:45.274Z,140
2019-05-15T12:26:57.615Z,129
2019-05-15T12:29:22.061Z,163
2019-05-15T12:30:34.286Z,163
2019-05-15T12:31:46.689Z,174
2019-05-15T12:32:58.871Z,174
2019-05-15T12:34:11.070Z,174
2019-05-15T12:35:23.246Z,191
2019-05-15T12:36:35.488Z,185
2019-05-15T12:40:14.736Z,168
2019-05-15T12:41:24.611Z,185
2019-05-15T12:42:36.835Z,202
2019-05-15T12:45:01.297Z,258
2019-05-15T12:47:26.393Z,202
2019-05-15T12:48:38.169Z,213
2019-05-15T12:49:50.417Z,230
2019-05-15T12:51:02.543Z,236
2019-05-15T13:11:40.897Z,225
2019-05-15T14:00:56.999Z,281
2019-05-15T14:02:14.184Z,281
2019-05-15T14:03:18.364Z,264
2019-05-15T14:05:42.389Z,202
2019-05-15T14:06:54.520Z,213
2019-05-15T14:08:06.743Z,225
2019-05-15T14:09:19.056Z,241
2019-05-15T14:11:43.537Z,253
2019-05-15T14:12:55.835Z,247
2019-05-15T14:14:07.991Z,247
2019-05-15T14:15:20.234Z,298
2019-05-15T14:17:44.805Z,331
2019-05-15T14:18:56.981Z,331
2019-05-15T14:20:09.241Z,303
2019-05-15T14:21:21.552Z,275
2019-05-15T14:22:33.735Z,264
2019-05-15T14:23:49.245Z,236
2019-05-15T14:24:59.651Z,213
2019-05-15T14:26:10.781Z,196
2019-05-15T14:27:22.846Z,185
2019-05-15T14:28:35.050Z,185
2019-05-15T14:29:47.267Z,191
2019-05-15T14:30:59.507Z,208
2019-05-15T14:32:11.714Z,202
2019-05-15T14:33:23.962Z,191
2019-05-15T14:35:48.591Z,151
2019-05-15T14:38:13.319Z,135
2019-05-15T14:39:25.250Z,146
2019-05-15T14:40:37.590Z,191
2019-05-15T14:41:50.303Z,247
2019-05-15T14:43:01.969Z,298
2019-05-15T14:44:14.228Z,303
2019-05-15T14:45:26.583Z,286
2019-05-15T14:49:03.224Z,208
2019-05-15T14:50:15.497Z,168
2019-05-15T14:51:27.730Z,157
2019-05-15T14:53:52.207Z,135
2019-05-15T14:55:07.009Z,146
2019-05-15T14:56:16.807Z,151
2019-05-15T14:57:29.175Z,157
2019-05-15T14:59:53.838Z,163
2019-05-15T15:01:05.922Z,146
2019-05-15T15:02:17.983Z,135
2019-05-15T15:03:30.380Z,129
2019-05-15T15:05:54.750Z,123
2019-05-15T15:07:07.888Z,135
2019-05-15T15:08:19.237Z,174
2019-05-15T15:11:56.184Z,230
2019-05-15T15:13:08.293Z,241
2019-05-15T15:14:20.605Z,236
2019-05-15T15:15:32.786Z,236
2019-05-15T15:16:44.967Z,219
2019-05-15T15:17:57.219Z,196
2019-05-15T15:19:09.463Z,174
2019-05-15T15:21:34.173Z,191
2019-05-15T15:22:46.242Z,174
2019-05-15T15:23:58.615Z,157
2019-05-15T15:25:11.184Z,140
2019-05-15T15:27:35.354Z,140
